الصفحة الرئيسية
METAR-TAF:

METAR-TAF

مطار :

دمشق, سوريا

مطار دمشق الدولي

دائرة عرض: 33-25N, خط طول: 036-31E, ارتفاع: 608 متر

مراقبة الطقس الحالي

تاريخ ووقت الإصدار 43 دقيقة قبل الساعة 03:00UTC
ريح 24 عقدة من الغرب/الجنوب الغربي
درجة الحرارة 5°درجة مئوية
الرطوبة 75%
ضغط 1000 hPa
الرؤية 10 كم أو أكثر
غيوم مفككة على ارتفاع 3000 قدم
ملبد بالغيوم على ارتفاع 10000 قدم
مطر

METAR: OSDI 190300Z 24024KT 9999 RA BKN030 OVC100 05/01 Q1000

زمن: 05:43 (03:43 UTC)

توقعات

تاريخ ووقت الإصدار 5ساعات و 43 دقيقة قبل الساعة 22:00UTC
التوقعات صالحة من19 الساعة 00 UTC إلى 19 الساعة 20 UTC
ريح 20 عقدة من الغرب تتزايد حتى 35 عقدة
الرؤية: 6000 متر
غيوم متفرقة على ارتفاع 3000 قدم
غيوم مفككة على ارتفاع 10000 قدم
غيوم متفرقة على ارتفاع 2500 قدم, مزنة ركامية.
غيوم مفككة على ارتفاع 3000 قدم
ملبد بالغيوم على ارتفاع 9000 قدم
زخات من المطر

TAF: OSDI 182200Z 19002006 23015KT 6000 SCT030 BKN100 TEMPIO 1900/1918 26020G35KT 3000TS SHRA SCT025CB BKN030 OVC090

أرصاد الطقس والتوقعات من أكثر من 4000 مطار (تقارير الطقس للمطار METAR والتنبؤ بالطقس بالمطارTAF).

المحطات المتاحة هي النقط الصفراء والحمراء على الخريطة.

حرك المؤشر فوق النقطة لمعرفة اسم المحطة.

ثم انقر لمعرفة أرصاد وتوقعات الطقس.

لتغيير الخارطة: اضغط على الأزرار الخضراء مع رمز الصليب الأسود للتكبير. على الزر الأخضر مع شرطة للتصغير، أو على الأسهم الخضراء للخرائط المجاورة.


METAR-TAF: